sensor_id;sensor_type;location;lat;lon;timestamp;temperature;humidity
11609;DHT22;5860;52.018;8.536;2023-04-30T00:01:27;7.30;99.90
11609;DHT22;5860;52.018;8.536;2023-04-30T00:03:54;7.30;99.90
11609;DHT22;5860;52.018;8.536;2023-04-30T00:06:22;7.30;99.90
11609;DHT22;5860;52.018;8.536;2023-04-30T00:08:49;7.30;99.90
11609;DHT22;5860;52.018;8.536;2023-04-30T00:11:16;7.20;99.90
11609;DHT22;5860;52.018;8.536;2023-04-30T00:13:43;7.10;99.90
11609;DHT22;5860;52.018;8.536;2023-04-30T00:16:10;7.10;99.90
11609;DHT22;5860;52.018;8.536;2023-04-30T00:18:37;7.10;99.90
11609;DHT22;5860;52.018;8.536;2023-04-30T00:21:04;7.10;99.90
11609;DHT22;5860;52.018;8.536;2023-04-30T00:23:31;7.20;99.90
11609;DHT22;5860;52.018;8.536;2023-04-30T00:25:58;7.10;99.90
11609;DHT22;5860;52.018;8.536;2023-04-30T00:28:25;7.20;99.90
11609;DHT22;5860;52.018;8.536;2023-04-30T00:30:52;7.10;99.90
11609;DHT22;5860;52.018;8.536;2023-04-30T00:33:19;7.00;99.90
11609;DHT22;5860;52.018;8.536;2023-04-30T00:35:47;7.00;99.90
11609;DHT22;5860;52.018;8.536;2023-04-30T00:38:13;6.90;99.90
11609;DHT22;5860;52.018;8.536;2023-04-30T00:40:41;6.90;99.90
11609;DHT22;5860;52.018;8.536;2023-04-30T00:43:09;6.90;99.90
11609;DHT22;5860;52.018;8.536;2023-04-30T00:45:36;6.80;99.90
11609;DHT22;5860;52.018;8.536;2023-04-30T00:48:03;6.80;99.90
11609;DHT22;5860;52.018;8.536;2023-04-30T00:50:31;6.70;99.90
11609;DHT22;5860;52.018;8.536;2023-04-30T00:52:58;6.60;99.90
11609;DHT22;5860;52.018;8.536;2023-04-30T00:55:25;6.50;99.90
11609;DHT22;5860;52.018;8.536;2023-04-30T00:57:55;6.50;99.90
11609;DHT22;5860;52.018;8.536;2023-04-30T01:00:22;6.50;99.90
11609;DHT22;5860;52.018;8.536;2023-04-30T01:02:49;6.50;99.90
11609;DHT22;5860;52.018;8.536;2023-04-30T01:05:16;6.40;99.90
11609;DHT22;5860;52.018;8.536;2023-04-30T01:07:44;6.50;99.90
11609;DHT22;5860;52.018;8.536;2023-04-30T01:10:13;6.40;99.90
11609;DHT22;5860;52.018;8.536;2023-04-30T01:12:57;6.40;99.90
11609;DHT22;5860;52.018;8.536;2023-04-30T01:15:41;6.40;99.90
11609;DHT22;5860;52.018;8.536;2023-04-30T01:18:12;6.40;99.90
11609;DHT22;5860;52.018;8.536;2023-04-30T01:20:49;6.40;99.90
11609;DHT22;5860;52.018;8.536;2023-04-30T01:29:06;6.50;99.90
11609;DHT22;5860;52.018;8.536;2023-04-30T01:31:34;6.50;99.90
11609;DHT22;5860;52.018;8.536;2023-04-30T01:34:01;6.50;99.90
11609;DHT22;5860;52.018;8.536;2023-04-30T01:36:49;6.50;99.90
11609;DHT22;5860;52.018;8.536;2023-04-30T01:42:38;6.40;99.90
11609;DHT22;5860;52.018;8.536;2023-04-30T01:45:31;6.40;99.90
11609;DHT22;5860;52.018;8.536;2023-04-30T01:51:01;6.30;99.90
11609;DHT22;5860;52.018;8.536;2023-04-30T01:53:41;6.20;99.90
11609;DHT22;5860;52.018;8.536;2023-04-30T01:56:16;6.20;99.90
11609;DHT22;5860;52.018;8.536;2023-04-30T01:58:48;6.10;99.90
11609;DHT22;5860;52.018;8.536;2023-04-30T02:01:29;6.10;99.90
11609;DHT22;5860;52.018;8.536;2023-04-30T02:03:57;6.10;99.90
11609;DHT22;5860;52.018;8.536;2023-04-30T02:06:26;6.10;99.90
11609;DHT22;5860;52.018;8.536;2023-04-30T02:08:56;6.20;99.90
11609;DHT22;5860;52.018;8.536;2023-04-30T02:11:28;6.20;99.90
11609;DHT22;5860;52.018;8.536;2023-04-30T02:13:57;6.20;99.90
11609;DHT22;5860;52.018;8.536;2023-04-30T02:16:25;6.20;99.90
11609;DHT22;5860;52.018;8.536;2023-04-30T02:18:52;6.20;99.90
11609;DHT22;5860;52.018;8.536;2023-04-30T02:21:19;6.20;99.90
11609;DHT22;5860;52.018;8.536;2023-04-30T02:23:47;6.20;99.90
11609;DHT22;5860;52.018;8.536;2023-04-30T02:26:14;6.30;99.90
11609;DHT22;5860;52.018;8.536;2023-04-30T02:28:41;6.30;99.90
11609;DHT22;5860;52.018;8.536;2023-04-30T02:31:08;6.20;99.90
11609;DHT22;5860;52.018;8.536;2023-04-30T02:33:35;6.20;99.90
11609;DHT22;5860;52.018;8.536;2023-04-30T02:36:02;6.10;99.90
11609;DHT22;5860;52.018;8.536;2023-04-30T02:38:29;6.30;99.90
11609;DHT22;5860;52.018;8.536;2023-04-30T02:40:56;6.00;99.90
11609;DHT22;5860;52.018;8.536;2023-04-30T02:43:23;5.90;99.90
11609;DHT22;5860;52.018;8.536;2023-04-30T02:45:50;5.90;99.90
11609;DHT22;5860;52.018;8.536;2023-04-30T02:48:17;5.90;99.90
11609;DHT22;5860;52.018;8.536;2023-04-30T02:50:44;5.80;99.90
11609;DHT22;5860;52.018;8.536;2023-04-30T02:53:11;5.80;99.90
11609;DHT22;5860;52.018;8.536;2023-04-30T02:55:38;5.80;99.90
11609;DHT22;5860;52.018;8.536;2023-04-30T02:58:05;5.70;99.90
11609;DHT22;5860;52.018;8.536;2023-04-30T03:00:32;5.70;99.90
11609;DHT22;5860;52.018;8.536;2023-04-30T03:02:59;5.70;99.90
11609;DHT22;5860;52.018;8.536;2023-04-30T03:05:26;5.60;99.90
11609;DHT22;5860;52.018;8.536;2023-04-30T03:07:53;5.60;99.90
11609;DHT22;5860;52.018;8.536;2023-04-30T03:10:21;5.60;99.90
11609;DHT22;5860;52.018;8.536;2023-04-30T03:12:48;5.90;99.90
11609;DHT22;5860;52.018;8.536;2023-04-30T03:15:15;5.50;99.90
11609;DHT22;5860;52.018;8.536;2023-04-30T03:17:42;5.50;99.90
11609;DHT22;5860;52.018;8.536;2023-04-30T03:20:12;5.50;99.90
11609;DHT22;5860;52.018;8.536;2023-04-30T03:22:39;5.50;99.90
11609;DHT22;5860;52.018;8.536;2023-04-30T03:25:07;5.40;99.90
11609;DHT22;5860;52.018;8.536;2023-04-30T03:27:34;5.40;99.90
11609;DHT22;5860;52.018;8.536;2023-04-30T03:30:01;5.40;99.90
11609;DHT22;5860;52.018;8.536;2023-04-30T03:32:28;5.40;99.90
11609;DHT22;5860;52.018;8.536;2023-04-30T03:34:55;5.30;99.90
11609;DHT22;5860;52.018;8.536;2023-04-30T03:37:22;5.30;99.90
11609;DHT22;5860;52.018;8.536;2023-04-30T03:39:49;5.30;99.90
11609;DHT22;5860;52.018;8.536;2023-04-30T03:42:16;5.30;99.90
11609;DHT22;5860;52.018;8.536;2023-04-30T03:44:43;5.20;99.90
11609;DHT22;5860;52.018;8.536;2023-04-30T03:47:10;5.20;99.90
11609;DHT22;5860;52.018;8.536;2023-04-30T03:49:37;5.20;99.90
11609;DHT22;5860;52.018;8.536;2023-04-30T03:52:04;5.20;99.90
11609;DHT22;5860;52.018;8.536;2023-04-30T03:54:32;5.10;99.90
11609;DHT22;5860;52.018;8.536;2023-04-30T03:57:00;5.20;99.90
11609;DHT22;5860;52.018;8.536;2023-04-30T03:59:30;5.20;99.90
11609;DHT22;5860;52.018;8.536;2023-04-30T04:01:59;5.20;99.90
11609;DHT22;5860;52.018;8.536;2023-04-30T04:04:28;5.20;99.90
11609;DHT22;5860;52.018;8.536;2023-04-30T04:06:55;5.30;99.90
11609;DHT22;5860;52.018;8.536;2023-04-30T04:09:22;5.20;99.90
11609;DHT22;5860;52.018;8.536;2023-04-30T04:11:50;5.30;99.90
11609;DHT22;5860;52.018;8.536;2023-04-30T04:14:16;5.30;99.90
11609;DHT22;5860;52.018;8.536;2023-04-30T04:16:43;5.30;99.90
11609;DHT22;5860;52.018;8.536;2023-04-30T04:19:10;5.30;99.90
11609;DHT22;5860;52.018;8.536;2023-04-30T04:21:41;5.30;99.90
11609;DHT22;5860;52.018;8.536;2023-04-30T04:24:08;5.30;99.90
11609;DHT22;5860;52.018;8.536;2023-04-30T04:26:36;5.40;99.90
11609;DHT22;5860;52.018;8.536;2023-04-30T04:29:03;5.40;99.90
11609;DHT22;5860;52.018;8.536;2023-04-30T04:31:30;5.40;99.90
11609;DHT22;5860;52.018;8.536;2023-04-30T04:33:59;5.50;99.90
11609;DHT22;5860;52.018;8.536;2023-04-30T04:36:27;5.60;99.90
11609;DHT22;5860;52.018;8.536;2023-04-30T04:38:54;5.50;99.90
11609;DHT22;5860;52.018;8.536;2023-04-30T04:41:23;6.30;99.90
11609;DHT22;5860;52.018;8.536;2023-04-30T04:43:51;8.30;99.90
11609;DHT22;5860;52.018;8.536;2023-04-30T04:46:18;10.20;99.90
11609;DHT22;5860;52.018;8.536;2023-04-30T04:48:46;10.90;99.90
11609;DHT22;5860;52.018;8.536;2023-04-30T04:51:13;11.30;99.90
11609;DHT22;5860;52.018;8.536;2023-04-30T04:53:41;11.50;99.90
11609;DHT22;5860;52.018;8.536;2023-04-30T04:56:09;12.50;99.90
11609;DHT22;5860;52.018;8.536;2023-04-30T04:58:36;13.40;99.90
11609;DHT22;5860;52.018;8.536;2023-04-30T05:01:03;13.50;99.90
11609;DHT22;5860;52.018;8.536;2023-04-30T05:03:33;12.40;99.90
11609;DHT22;5860;52.018;8.536;2023-04-30T05:06:04;12.60;99.90
11609;DHT22;5860;52.018;8.536;2023-04-30T05:08:31;13.50;99.90
11609;DHT22;5860;52.018;8.536;2023-04-30T05:10:57;13.80;99.90
11609;DHT22;5860;52.018;8.536;2023-04-30T05:13:25;13.30;99.90
11609;DHT22;5860;52.018;8.536;2023-04-30T05:15:52;12.50;99.90
11609;DHT22;5860;52.018;8.536;2023-04-30T05:18:20;13.20;99.90
11609;DHT22;5860;52.018;8.536;2023-04-30T05:20:47;13.20;99.90
11609;DHT22;5860;52.018;8.536;2023-04-30T05:23:15;15.20;99.90
11609;DHT22;5860;52.018;8.536;2023-04-30T05:25:42;15.40;99.90
11609;DHT22;5860;52.018;8.536;2023-04-30T05:28:09;15.80;99.90
11609;DHT22;5860;52.018;8.536;2023-04-30T05:30:36;13.60;99.90
11609;DHT22;5860;52.018;8.536;2023-04-30T05:33:03;15.30;99.90
11609;DHT22;5860;52.018;8.536;2023-04-30T05:35:30;17.00;99.90
11609;DHT22;5860;52.018;8.536;2023-04-30T05:38:02;16.90;99.90
11609;DHT22;5860;52.018;8.536;2023-04-30T05:40:31;15.60;99.90
11609;DHT22;5860;52.018;8.536;2023-04-30T05:42:58;16.70;99.90
11609;DHT22;5860;52.018;8.536;2023-04-30T05:45:25;16.60;99.90
11609;DHT22;5860;52.018;8.536;2023-04-30T05:47:52;16.30;99.90
11609;DHT22;5860;52.018;8.536;2023-04-30T05:50:20;16.90;99.90
11609;DHT22;5860;52.018;8.536;2023-04-30T05:52:46;16.80;99.90
11609;DHT22;5860;52.018;8.536;2023-04-30T05:55:14;18.20;99.90
11609;DHT22;5860;52.018;8.536;2023-04-30T05:57:41;16.80;99.90
11609;DHT22;5860;52.018;8.536;2023-04-30T06:00:08;16.90;99.90
11609;DHT22;5860;52.018;8.536;2023-04-30T06:02:35;17.20;99.90
11609;DHT22;5860;52.018;8.536;2023-04-30T06:05:02;16.40;99.90
11609;DHT22;5860;52.018;8.536;2023-04-30T06:07:29;17.80;99.90
11609;DHT22;5860;52.018;8.536;2023-04-30T06:09:56;17.80;99.90
11609;DHT22;5860;52.018;8.536;2023-04-30T06:12:23;16.20;99.90
11609;DHT22;5860;52.018;8.536;2023-04-30T06:14:51;16.10;99.90
11609;DHT22;5860;52.018;8.536;2023-04-30T06:17:18;15.10;99.90
11609;DHT22;5860;52.018;8.536;2023-04-30T06:19:45;16.80;99.90
11609;DHT22;5860;52.018;8.536;2023-04-30T06:22:12;17.40;99.90
11609;DHT22;5860;52.018;8.536;2023-04-30T06:24:39;17.30;99.90
11609;DHT22;5860;52.018;8.536;2023-04-30T06:27:06;18.20;99.90
11609;DHT22;5860;52.018;8.536;2023-04-30T06:29:33;18.50;99.90
11609;DHT22;5860;52.018;8.536;2023-04-30T06:32:00;17.30;99.90
11609;DHT22;5860;52.018;8.536;2023-04-30T06:34:27;16.20;99.90
11609;DHT22;5860;52.018;8.536;2023-04-30T06:36:54;17.00;99.90
11609;DHT22;5860;52.018;8.536;2023-04-30T06:39:20;16.60;99.90
11609;DHT22;5860;52.018;8.536;2023-04-30T06:41:47;17.90;99.90
11609;DHT22;5860;52.018;8.536;2023-04-30T06:44:17;15.10;99.90
11609;DHT22;5860;52.018;8.536;2023-04-30T06:46:44;15.80;99.90
11609;DHT22;5860;52.018;8.536;2023-04-30T06:49:12;15.50;99.90
11609;DHT22;5860;52.018;8.536;2023-04-30T06:51:40;14.10;99.90
11609;DHT22;5860;52.018;8.536;2023-04-30T06:54:07;14.90;99.90
11609;DHT22;5860;52.018;8.536;2023-04-30T06:56:34;14.90;99.90
11609;DHT22;5860;52.018;8.536;2023-04-30T06:59:01;15.10;99.90
11609;DHT22;5860;52.018;8.536;2023-04-30T07:01:28;15.70;99.90
11609;DHT22;5860;52.018;8.536;2023-04-30T07:03:55;14.30;99.90
11609;DHT22;5860;52.018;8.536;2023-04-30T07:06:22;16.70;99.90
11609;DHT22;5860;52.018;8.536;2023-04-30T07:08:49;16.00;99.90
11609;DHT22;5860;52.018;8.536;2023-04-30T07:11:16;15.70;99.90
11609;DHT22;5860;52.018;8.536;2023-04-30T07:13:43;15.80;99.90
11609;DHT22;5860;52.018;8.536;2023-04-30T07:16:10;14.40;99.90
11609;DHT22;5860;52.018;8.536;2023-04-30T07:18:37;15.70;99.90
11609;DHT22;5860;52.018;8.536;2023-04-30T07:21:04;16.00;99.90
11609;DHT22;5860;52.018;8.536;2023-04-30T07:23:31;17.00;99.90
11609;DHT22;5860;52.018;8.536;2023-04-30T07:25:58;17.40;99.90
11609;DHT22;5860;52.018;8.536;2023-04-30T07:28:25;16.60;99.90
11609;DHT22;5860;52.018;8.536;2023-04-30T07:30:52;15.70;99.90
11609;DHT22;5860;52.018;8.536;2023-04-30T07:33:19;15.60;99.90
11609;DHT22;5860;52.018;8.536;2023-04-30T07:35:49;15.20;99.90
11609;DHT22;5860;52.018;8.536;2023-04-30T07:38:17;15.70;99.90
11609;DHT22;5860;52.018;8.536;2023-04-30T07:40:44;16.20;99.90
11609;DHT22;5860;52.018;8.536;2023-04-30T07:43:11;14.70;99.90
11609;DHT22;5860;52.018;8.536;2023-04-30T07:45:38;15.60;99.90
11609;DHT22;5860;52.018;8.536;2023-04-30T07:48:05;16.50;99.90
11609;DHT22;5860;52.018;8.536;2023-04-30T07:50:32;14.00;99.90
11609;DHT22;5860;52.018;8.536;2023-04-30T07:53:00;11.80;99.90
11609;DHT22;5860;52.018;8.536;2023-04-30T07:55:27;11.10;99.90
11609;DHT22;5860;52.018;8.536;2023-04-30T07:57:54;10.80;99.90
11609;DHT22;5860;52.018;8.536;2023-04-30T08:00:22;10.90;99.90
11609;DHT22;5860;52.018;8.536;2023-04-30T08:02:48;10.20;99.90
11609;DHT22;5860;52.018;8.536;2023-04-30T08:05:16;10.00;99.90
11609;DHT22;5860;52.018;8.536;2023-04-30T08:07:47;10.00;99.90
11609;DHT22;5860;52.018;8.536;2023-04-30T08:10:13;10.00;99.90
11609;DHT22;5860;52.018;8.536;2023-04-30T08:12:40;9.80;99.90
11609;DHT22;5860;52.018;8.536;2023-04-30T08:15:08;10.50;99.90
11609;DHT22;5860;52.018;8.536;2023-04-30T08:17:35;10.50;99.90
11609;DHT22;5860;52.018;8.536;2023-04-30T08:20:05;10.10;99.90
11609;DHT22;5860;52.018;8.536;2023-04-30T08:22:35;10.10;99.90
11609;DHT22;5860;52.018;8.536;2023-04-30T08:25:05;10.40;99.90
11609;DHT22;5860;52.018;8.536;2023-04-30T08:27:35;10.50;99.90
11609;DHT22;5860;52.018;8.536;2023-04-30T08:30:03;10.50;99.90
11609;DHT22;5860;52.018;8.536;2023-04-30T08:32:32;10.70;99.90
11609;DHT22;5860;52.018;8.536;2023-04-30T08:35:01;10.20;99.90
11609;DHT22;5860;52.018;8.536;2023-04-30T08:37:27;10.60;99.90
11609;DHT22;5860;52.018;8.536;2023-04-30T08:39:54;10.90;99.90
11609;DHT22;5860;52.018;8.536;2023-04-30T08:42:30;10.60;99.90
11609;DHT22;5860;52.018;8.536;2023-04-30T08:44:59;10.40;99.90
11609;DHT22;5860;52.018;8.536;2023-04-30T08:47:27;10.50;99.90
11609;DHT22;5860;52.018;8.536;2023-04-30T08:49:55;10.90;99.90
11609;DHT22;5860;52.018;8.536;2023-04-30T08:52:22;10.90;99.90
11609;DHT22;5860;52.018;8.536;2023-04-30T08:54:51;10.80;99.90
11609;DHT22;5860;52.018;8.536;2023-04-30T08:57:20;10.50;99.90
11609;DHT22;5860;52.018;8.536;2023-04-30T08:59:47;10.80;99.90
11609;DHT22;5860;52.018;8.536;2023-04-30T09:02:14;10.90;99.90
11609;DHT22;5860;52.018;8.536;2023-04-30T09:04:41;11.00;99.90
11609;DHT22;5860;52.018;8.536;2023-04-30T09:07:08;10.80;99.90
11609;DHT22;5860;52.018;8.536;2023-04-30T09:09:38;10.90;99.90
11609;DHT22;5860;52.018;8.536;2023-04-30T09:12:15;10.90;99.90
11609;DHT22;5860;52.018;8.536;2023-04-30T09:15:04;10.80;99.90
11609;DHT22;5860;52.018;8.536;2023-04-30T09:17:32;11.30;99.90
11609;DHT22;5860;52.018;8.536;2023-04-30T09:20:13;11.40;99.90
11609;DHT22;5860;52.018;8.536;2023-04-30T09:22:41;11.30;99.90
11609;DHT22;5860;52.018;8.536;2023-04-30T09:25:09;11.50;99.90
11609;DHT22;5860;52.018;8.536;2023-04-30T09:27:37;11.30;99.90
11609;DHT22;5860;52.018;8.536;2023-04-30T09:30:04;11.40;99.90
11609;DHT22;5860;52.018;8.536;2023-04-30T09:32:32;11.50;99.90
11609;DHT22;5860;52.018;8.536;2023-04-30T09:34:59;11.50;99.90
11609;DHT22;5860;52.018;8.536;2023-04-30T09:37:36;11.60;99.90
11609;DHT22;5860;52.018;8.536;2023-04-30T09:40:05;11.50;99.90
11609;DHT22;5860;52.018;8.536;2023-04-30T09:42:32;11.60;99.90
11609;DHT22;5860;52.018;8.536;2023-04-30T09:44:59;11.60;99.90
11609;DHT22;5860;52.018;8.536;2023-04-30T09:47:29;11.60;99.90
11609;DHT22;5860;52.018;8.536;2023-04-30T09:49:58;11.60;99.90
11609;DHT22;5860;52.018;8.536;2023-04-30T09:52:26;11.60;99.90
11609;DHT22;5860;52.018;8.536;2023-04-30T09:54:53;11.80;99.90
11609;DHT22;5860;52.018;8.536;2023-04-30T09:57:22;11.80;99.90
11609;DHT22;5860;52.018;8.536;2023-04-30T09:59:51;11.90;99.90
11609;DHT22;5860;52.018;8.536;2023-04-30T10:02:20;11.90;99.90
11609;DHT22;5860;52.018;8.536;2023-04-30T10:04:57;11.90;99.90
11609;DHT22;5860;52.018;8.536;2023-04-30T10:07:29;12.10;99.90
11609;DHT22;5860;52.018;8.536;2023-04-30T10:10:07;12.50;99.90
11609;DHT22;5860;52.018;8.536;2023-04-30T10:12:47;13.40;99.90
11609;DHT22;5860;52.018;8.536;2023-04-30T10:15:27;13.90;99.90
11609;DHT22;5860;52.018;8.536;2023-04-30T10:18:01;14.40;99.90
11609;DHT22;5860;52.018;8.536;2023-04-30T10:20:33;14.60;99.90
11609;DHT22;5860;52.018;8.536;2023-04-30T10:23:00;15.10;99.90
11609;DHT22;5860;52.018;8.536;2023-04-30T10:25:28;14.80;99.90
11609;DHT22;5860;52.018;8.536;2023-04-30T10:27:55;15.60;99.90
11609;DHT22;5860;52.018;8.536;2023-04-30T10:30:22;15.60;99.90
11609;DHT22;5860;52.018;8.536;2023-04-30T10:33:28;15.60;99.90
11609;DHT22;5860;52.018;8.536;2023-04-30T10:36:00;16.00;99.90
11609;DHT22;5860;52.018;8.536;2023-04-30T10:38:31;15.20;99.90
11609;DHT22;5860;52.018;8.536;2023-04-30T10:40:59;14.50;99.90
11609;DHT22;5860;52.018;8.536;2023-04-30T10:43:29;14.90;99.90
11609;DHT22;5860;52.018;8.536;2023-04-30T10:45:57;15.00;99.90
11609;DHT22;5860;52.018;8.536;2023-04-30T10:48:25;14.70;99.90
11609;DHT22;5860;52.018;8.536;2023-04-30T10:50:57;14.20;99.90
11609;DHT22;5860;52.018;8.536;2023-04-30T10:53:25;14.90;99.90
11609;DHT22;5860;52.018;8.536;2023-04-30T10:56:03;14.80;99.90
11609;DHT22;5860;52.018;8.536;2023-04-30T10:58:37;15.40;99.90
11609;DHT22;5860;52.018;8.536;2023-04-30T11:03:37;14.80;99.90
11609;DHT22;5860;52.018;8.536;2023-04-30T11:06:13;14.90;99.90
11609;DHT22;5860;52.018;8.536;2023-04-30T11:08:44;14.20;99.90
11609;DHT22;5860;52.018;8.536;2023-04-30T11:11:17;14.50;99.90
11609;DHT22;5860;52.018;8.536;2023-04-30T11:13:52;14.70;99.90
11609;DHT22;5860;52.018;8.536;2023-04-30T11:16:30;14.30;99.90
11609;DHT22;5860;52.018;8.536;2023-04-30T11:19:13;14.20;99.90
11609;DHT22;5860;52.018;8.536;2023-04-30T11:21:41;14.20;99.90
11609;DHT22;5860;52.018;8.536;2023-04-30T11:24:08;13.70;99.90
11609;DHT22;5860;52.018;8.536;2023-04-30T11:27:03;13.70;99.90
11609;DHT22;5860;52.018;8.536;2023-04-30T11:29:34;14.00;99.90
11609;DHT22;5860;52.018;8.536;2023-04-30T11:32:03;14.00;99.90
11609;DHT22;5860;52.018;8.536;2023-04-30T11:34:30;14.20;99.90
11609;DHT22;5860;52.018;8.536;2023-04-30T11:36:58;13.70;99.90
11609;DHT22;5860;52.018;8.536;2023-04-30T11:39:27;13.60;99.90
11609;DHT22;5860;52.018;8.536;2023-04-30T11:41:54;13.80;99.90
11609;DHT22;5860;52.018;8.536;2023-04-30T11:44:28;13.60;99.90
11609;DHT22;5860;52.018;8.536;2023-04-30T11:46:55;13.70;99.90
11609;DHT22;5860;52.018;8.536;2023-04-30T11:49:22;13.90;99.90
11609;DHT22;5860;52.018;8.536;2023-04-30T11:51:49;14.00;99.90
11609;DHT22;5860;52.018;8.536;2023-04-30T11:54:18;14.10;99.90
11609;DHT22;5860;52.018;8.536;2023-04-30T11:56:46;13.90;99.90
11609;DHT22;5860;52.018;8.536;2023-04-30T11:59:17;13.70;99.90
11609;DHT22;5860;52.018;8.536;2023-04-30T12:01:45;13.60;99.90
11609;DHT22;5860;52.018;8.536;2023-04-30T12:04:12;13.90;99.90
11609;DHT22;5860;52.018;8.536;2023-04-30T12:06:42;13.90;99.90
11609;DHT22;5860;52.018;8.536;2023-04-30T12:09:09;14.00;99.90
11609;DHT22;5860;52.018;8.536;2023-04-30T12:11:37;14.00;99.90
11609;DHT22;5860;52.018;8.536;2023-04-30T12:14:09;14.20;99.90
11609;DHT22;5860;52.018;8.536;2023-04-30T12:19:06;14.00;99.90
11609;DHT22;5860;52.018;8.536;2023-04-30T12:21:33;14.30;99.90
11609;DHT22;5860;52.018;8.536;2023-04-30T12:24:01;14.50;99.90
11609;DHT22;5860;52.018;8.536;2023-04-30T12:26:36;14.30;99.90
11609;DHT22;5860;52.018;8.536;2023-04-30T12:29:24;14.50;99.90
11609;DHT22;5860;52.018;8.536;2023-04-30T12:31:53;14.50;99.90
11609;DHT22;5860;52.018;8.536;2023-04-30T12:34:20;14.40;99.90
11609;DHT22;5860;52.018;8.536;2023-04-30T12:36:47;14.50;99.90
11609;DHT22;5860;52.018;8.536;2023-04-30T12:39:15;14.70;99.90
11609;DHT22;5860;52.018;8.536;2023-04-30T12:41:44;14.70;99.90
11609;DHT22;5860;52.018;8.536;2023-04-30T12:44:24;14.30;99.90
11609;DHT22;5860;52.018;8.536;2023-04-30T12:46:54;14.40;99.90
11609;DHT22;5860;52.018;8.536;2023-04-30T12:49:33;14.20;99.90
11609;DHT22;5860;52.018;8.536;2023-04-30T12:52:05;14.10;99.90
11609;DHT22;5860;52.018;8.536;2023-04-30T12:54:36;14.30;99.90
11609;DHT22;5860;52.018;8.536;2023-04-30T12:57:06;14.50;99.90
11609;DHT22;5860;52.018;8.536;2023-04-30T12:59:36;14.30;99.90
11609;DHT22;5860;52.018;8.536;2023-04-30T13:02:13;14.60;99.90
11609;DHT22;5860;52.018;8.536;2023-04-30T13:04:41;14.40;99.90
11609;DHT22;5860;52.018;8.536;2023-04-30T13:07:09;14.40;99.90
11609;DHT22;5860;52.018;8.536;2023-04-30T13:09:37;14.50;99.90
11609;DHT22;5860;52.018;8.536;2023-04-30T13:12:04;14.60;99.90
11609;DHT22;5860;52.018;8.536;2023-04-30T13:14:32;14.50;99.90
11609;DHT22;5860;52.018;8.536;2023-04-30T13:16:59;14.40;99.90
11609;DHT22;5860;52.018;8.536;2023-04-30T13:19:30;14.60;99.90
11609;DHT22;5860;52.018;8.536;2023-04-30T13:21:58;14.70;99.90
11609;DHT22;5860;52.018;8.536;2023-04-30T13:24:27;14.50;99.90
11609;DHT22;5860;52.018;8.536;2023-04-30T13:26:54;14.90;99.90
11609;DHT22;5860;52.018;8.536;2023-04-30T13:29:21;14.90;99.90
11609;DHT22;5860;52.018;8.536;2023-04-30T13:31:48;14.50;99.90
11609;DHT22;5860;52.018;8.536;2023-04-30T13:34:15;14.70;99.90
11609;DHT22;5860;52.018;8.536;2023-04-30T13:36:42;14.70;99.90
11609;DHT22;5860;52.018;8.536;2023-04-30T13:39:12;14.80;99.90
11609;DHT22;5860;52.018;8.536;2023-04-30T13:41:39;14.70;99.90
11609;DHT22;5860;52.018;8.536;2023-04-30T13:44:06;14.60;99.90
11609;DHT22;5860;52.018;8.536;2023-04-30T13:46:33;14.40;99.90
11609;DHT22;5860;52.018;8.536;2023-04-30T13:49:00;14.70;99.90
11609;DHT22;5860;52.018;8.536;2023-04-30T13:51:27;14.90;99.90
11609;DHT22;5860;52.018;8.536;2023-04-30T13:53:54;15.10;99.90
11609;DHT22;5860;52.018;8.536;2023-04-30T13:56:23;14.80;99.90
11609;DHT22;5860;52.018;8.536;2023-04-30T13:58:50;15.00;99.90
11609;DHT22;5860;52.018;8.536;2023-04-30T14:01:16;14.80;99.90
11609;DHT22;5860;52.018;8.536;2023-04-30T14:03:44;14.90;99.90
11609;DHT22;5860;52.018;8.536;2023-04-30T14:06:12;14.90;99.90
11609;DHT22;5860;52.018;8.536;2023-04-30T14:08:39;14.80;99.90
11609;DHT22;5860;52.018;8.536;2023-04-30T14:11:06;15.00;99.90
11609;DHT22;5860;52.018;8.536;2023-04-30T14:13:33;14.80;99.90
11609;DHT22;5860;52.018;8.536;2023-04-30T14:16:00;15.10;99.90
11609;DHT22;5860;52.018;8.536;2023-04-30T14:18:27;14.90;99.90
11609;DHT22;5860;52.018;8.536;2023-04-30T14:20:55;15.10;99.90
11609;DHT22;5860;52.018;8.536;2023-04-30T14:23:22;14.70;99.90
11609;DHT22;5860;52.018;8.536;2023-04-30T14:25:49;14.90;99.90
11609;DHT22;5860;52.018;8.536;2023-04-30T14:28:16;15.20;99.90
11609;DHT22;5860;52.018;8.536;2023-04-30T14:30:43;14.80;99.90
11609;DHT22;5860;52.018;8.536;2023-04-30T14:33:10;14.90;99.90
11609;DHT22;5860;52.018;8.536;2023-04-30T14:35:38;14.70;99.90
11609;DHT22;5860;52.018;8.536;2023-04-30T14:38:07;14.60;99.90
11609;DHT22;5860;52.018;8.536;2023-04-30T14:40:34;14.90;99.90
11609;DHT22;5860;52.018;8.536;2023-04-30T14:43:01;14.90;99.90
11609;DHT22;5860;52.018;8.536;2023-04-30T14:45:28;14.70;99.90
11609;DHT22;5860;52.018;8.536;2023-04-30T14:47:55;14.80;99.90
11609;DHT22;5860;52.018;8.536;2023-04-30T14:50:23;14.80;99.90
11609;DHT22;5860;52.018;8.536;2023-04-30T14:52:50;14.90;99.90
11609;DHT22;5860;52.018;8.536;2023-04-30T14:55:17;14.90;99.90
11609;DHT22;5860;52.018;8.536;2023-04-30T14:57:44;14.90;99.90
11609;DHT22;5860;52.018;8.536;2023-04-30T15:00:12;14.80;99.90
11609;DHT22;5860;52.018;8.536;2023-04-30T15:02:39;14.70;99.90
11609;DHT22;5860;52.018;8.536;2023-04-30T15:05:06;14.70;99.90
11609;DHT22;5860;52.018;8.536;2023-04-30T15:07:37;14.80;99.90
11609;DHT22;5860;52.018;8.536;2023-04-30T15:10:05;14.80;99.90
11609;DHT22;5860;52.018;8.536;2023-04-30T15:12:32;14.90;99.90
11609;DHT22;5860;52.018;8.536;2023-04-30T15:15:01;14.80;99.90
11609;DHT22;5860;52.018;8.536;2023-04-30T15:17:31;14.90;99.90
11609;DHT22;5860;52.018;8.536;2023-04-30T15:20:03;14.90;99.90
11609;DHT22;5860;52.018;8.536;2023-04-30T15:22:31;15.00;99.90
11609;DHT22;5860;52.018;8.536;2023-04-30T15:24:59;14.90;99.90
11609;DHT22;5860;52.018;8.536;2023-04-30T15:27:29;14.80;99.90
11609;DHT22;5860;52.018;8.536;2023-04-30T15:29:59;15.00;99.90
11609;DHT22;5860;52.018;8.536;2023-04-30T15:32:26;15.10;99.90
11609;DHT22;5860;52.018;8.536;2023-04-30T15:34:53;15.10;99.90
11609;DHT22;5860;52.018;8.536;2023-04-30T15:37:20;15.00;99.90
11609;DHT22;5860;52.018;8.536;2023-04-30T15:39:49;15.00;99.90
11609;DHT22;5860;52.018;8.536;2023-04-30T15:42:16;15.10;99.90
11609;DHT22;5860;52.018;8.536;2023-04-30T15:44:43;14.90;99.90
11609;DHT22;5860;52.018;8.536;2023-04-30T15:47:10;14.80;99.90
11609;DHT22;5860;52.018;8.536;2023-04-30T15:49:38;14.90;99.90
11609;DHT22;5860;52.018;8.536;2023-04-30T15:52:05;14.80;99.90
11609;DHT22;5860;52.018;8.536;2023-04-30T15:54:32;14.80;99.90
11609;DHT22;5860;52.018;8.536;2023-04-30T15:57:00;14.90;99.90
11609;DHT22;5860;52.018;8.536;2023-04-30T15:59:28;14.80;99.90
11609;DHT22;5860;52.018;8.536;2023-04-30T16:01:55;14.70;99.90
11609;DHT22;5860;52.018;8.536;2023-04-30T16:04:22;14.80;99.90
11609;DHT22;5860;52.018;8.536;2023-04-30T16:06:49;14.80;99.90
11609;DHT22;5860;52.018;8.536;2023-04-30T16:09:16;14.90;99.90
11609;DHT22;5860;52.018;8.536;2023-04-30T16:11:46;15.00;99.90
11609;DHT22;5860;52.018;8.536;2023-04-30T16:14:14;15.00;99.90
11609;DHT22;5860;52.018;8.536;2023-04-30T16:16:41;15.10;99.90